Time;durP1;ratioP1;P1;durP2;ratioP2;P2;SDS_P1;SDS_P2;PMS_P1;PMS_P2;Temp;Humidity;BMP_temperature;BMP_pressure;BME280_temperature;BME280_humidity;BME280_pressure;Samples;Min_cycle;Max_cycle;Signal;HPM_P1;HPM_P2
2023/04/16 00:01:05;;;;;;;;;;;;;;;6.38;100.00;96365.84;5095295;28;19958;-73
2023/04/16 00:03:31;;;;;;;;;;;;;;;6.34;100.00;96359.41;5095298;28;19979;-73
2023/04/16 00:05:58;;;;;;;;;;;;;;;6.34;100.00;96357.63;5095238;28;19939;-73
2023/04/16 00:08:23;;;;;;;;;;;;;;;6.30;100.00;96357.22;5095751;28;19941;-73
2023/04/16 00:10:50;;;;;;;;;;;;;;;6.29;100.00;96362.59;5095259;28;20449;-74
2023/04/16 00:13:16;;;;;;;;;;;;;;;6.32;100.00;96361.41;5095174;28;19939;-78
2023/04/16 00:15:42;;;;;;;;;;;;;;;6.34;100.00;96365.47;5095138;28;19998;-77
2023/04/16 00:18:08;;;;;;;;;;;;;;;6.33;100.00;96370.84;5095711;28;19940;-77
2023/04/16 00:20:33;;;;;;;;;;;;;;;6.27;100.00;96368.00;5095008;28;19948;-77
2023/04/16 00:22:59;;;;;;;;;;;;;;;6.21;100.00;96366.16;5094990;28;19960;-77
2023/04/16 00:25:25;;;;;;;;;;;;;;;6.21;100.00;96370.56;5094997;28;19958;-77
2023/04/16 00:27:51;;;;;;;;;;;;;;;6.20;100.00;96366.38;5095806;28;19948;-72
2023/04/16 00:30:17;;;;;;;;;;;;;;;6.16;100.00;96368.56;5094585;28;19975;-77
2023/04/16 00:32:43;;;;;;;;;;;;;;;6.14;100.00;96364.53;5094337;28;19982;-77
2023/04/16 00:35:08;;;;;;;;;;;;;;;6.10;100.00;96370.09;5094772;28;19952;-76
2023/04/16 00:37:34;;;;;;;;;;;;;;;6.12;100.00;96372.53;5094672;28;19960;-76
2023/04/16 00:40:00;;;;;;;;;;;;;;;6.17;100.00;96374.56;5094665;28;19938;-77
2023/04/16 00:42:26;;;;;;;;;;;;;;;6.16;100.00;96372.97;5095037;28;20054;-77
2023/04/16 00:44:52;;;;;;;;;;;;;;;6.15;100.00;96369.53;5093974;28;20326;-77
2023/04/16 00:47:18;;;;;;;;;;;;;;;6.17;100.00;96369.34;5094642;28;20427;-71
2023/04/16 00:49:44;;;;;;;;;;;;;;;6.18;100.00;96368.38;5094547;28;20424;-75
2023/04/16 00:52:10;;;;;;;;;;;;;;;6.18;100.00;96365.75;5094416;28;20384;-74
2023/04/16 00:54:36;;;;;;;;;;;;;;;6.16;100.00;96371.16;5094413;28;19943;-74
2023/04/16 00:57:02;;;;;;;;;;;;;;;6.13;100.00;96371.53;5094256;28;20294;-75
2023/04/16 00:59:28;;;;;;;;;;;;;;;6.17;100.00;96377.16;5093169;28;19963;-75
2023/04/16 01:01:54;;;;;;;;;;;;;;;6.20;100.00;96376.78;5094238;28;20014;-74
2023/04/16 01:04:20;;;;;;;;;;;;;;;6.26;100.00;96374.22;5094806;28;19941;-75
2023/04/16 01:06:45;;;;;;;;;;;;;;;6.33;100.00;96368.25;5094226;28;19943;-88
2023/04/16 01:09:11;;;;;;;;;;;;;;;6.39;100.00;96380.50;5094171;28;19946;-76
2023/04/16 01:11:38;;;;;;;;;;;;;;;6.44;100.00;96371.09;5094936;28;20328;-76
2023/04/16 01:14:04;;;;;;;;;;;;;;;6.49;100.00;96373.94;5094926;28;19937;-77
2023/04/16 01:16:31;;;;;;;;;;;;;;;6.53;100.00;96371.75;5094092;28;20407;-76
2023/04/16 01:18:56;;;;;;;;;;;;;;;6.58;100.00;96373.78;5094621;28;19932;-76
2023/04/16 01:21:22;;;;;;;;;;;;;;;6.60;100.00;96379.59;5093984;28;19958;-76
2023/04/16 01:23:48;;;;;;;;;;;;;;;6.59;100.00;96373.56;5094016;28;19935;-87
2023/04/16 01:26:14;;;;;;;;;;;;;;;6.61;100.00;96381.97;5094028;28;19949;-71
2023/04/16 01:28:40;;;;;;;;;;;;;;;6.61;100.00;96381.97;5094452;28;19935;-69
2023/04/16 01:31:06;;;;;;;;;;;;;;;6.62;100.00;96382.81;5093736;28;19965;-68
2023/04/16 01:33:32;;;;;;;;;;;;;;;6.60;100.00;96377.78;5093815;28;20007;-68
2023/04/16 01:35:58;;;;;;;;;;;;;;;6.60;100.00;96382.19;5093813;28;19956;-70
2023/04/16 01:38:24;;;;;;;;;;;;;;;6.56;100.00;96379.16;5092621;28;19939;-69
2023/04/16 01:40:54;;;;;;;;;;;;;;;6.53;100.00;96382.19;5094532;28;19976;-69
2023/04/16 01:43:20;;;;;;;;;;;;;;;6.53;100.00;96376.97;5093337;28;19947;-71
2023/04/16 01:45:45;;;;;;;;;;;;;;;6.52;100.00;96392.78;5094279;28;19933;-75
2023/04/16 01:48:11;;;;;;;;;;;;;;;6.51;100.00;96386.78;5094292;28;19946;-75
2023/04/16 01:50:37;;;;;;;;;;;;;;;6.54;100.00;96381.16;5093663;28;19936;-77
2023/04/16 01:53:03;;;;;;;;;;;;;;;6.57;100.00;96387.78;5094270;28;19997;-76
2023/04/16 01:55:30;;;;;;;;;;;;;;;6.59;100.00;96386.59;5093655;28;20335;-75
2023/04/16 01:57:56;;;;;;;;;;;;;;;6.62;100.00;96391.44;5093667;28;19940;-75
2023/04/16 02:00:22;;;;;;;;;;;;;;;6.61;100.00;96394.22;5093627;28;19947;-71
2023/04/16 02:02:48;;;;;;;;;;;;;;;6.59;100.00;96383.19;5094351;28;20438;-73
2023/04/16 02:05:14;;;;;;;;;;;;;;;6.58;100.00;96387.59;5093554;28;19983;-71
2023/04/16 02:07:40;;;;;;;;;;;;;;;6.59;100.00;96383.97;5094329;28;19945;-72
2023/04/16 02:10:07;;;;;;;;;;;;;;;6.61;100.00;96386.41;5093799;28;19941;-71
2023/04/16 02:12:33;;;;;;;;;;;;;;;6.62;100.00;96388.81;5093387;28;19950;-71
2023/04/16 02:14:59;;;;;;;;;;;;;;;6.62;100.00;96388.81;5093402;28;19933;-72
2023/04/16 02:17:25;;;;;;;;;;;;;;;6.63;100.00;96390.41;5093497;28;20412;-71
2023/04/16 02:19:51;;;;;;;;;;;;;;;6.65;100.00;96396.22;5092990;28;19950;-72
2023/04/16 02:22:16;;;;;;;;;;;;;;;6.67;100.00;96389.03;5093988;28;19963;-70
2023/04/16 02:24:42;;;;;;;;;;;;;;;6.67;100.00;96393.44;5093449;28;19940;-70
2023/04/16 02:27:08;;;;;;;;;;;;;;;6.67;100.00;96390.84;5093918;28;19949;-69
2023/04/16 02:29:34;;;;;;;;;;;;;;;6.63;100.00;96398.22;5093134;28;19991;-68
2023/04/16 02:32:00;;;;;;;;;;;;;;;6.61;100.00;96397.63;5093359;28;20394;-70
2023/04/16 02:34:26;;;;;;;;;;;;;;;6.61;100.00;96389.81;5093276;28;19938;-71
2023/04/16 02:36:53;;;;;;;;;;;;;;;6.62;100.00;96391.44;5094015;28;19956;-74
2023/04/16 02:39:18;;;;;;;;;;;;;;;6.64;100.00;96394.63;5093451;28;19932;-79
2023/04/16 02:41:44;;;;;;;;;;;;;;;6.66;100.00;96390.03;5093740;28;19995;-69
2023/04/16 02:44:10;;;;;;;;;;;;;;;6.70;100.00;96393.06;5093216;28;20039;-70
2023/04/16 02:46:36;;;;;;;;;;;;;;;6.74;100.00;96396.06;5093176;28;19956;-69
2023/04/16 02:49:02;;;;;;;;;;;;;;;6.75;100.00;96397.69;5093928;28;19936;-69
2023/04/16 02:51:28;;;;;;;;;;;;;;;6.76;100.00;96396.69;5093160;28;19930;-69
2023/04/16 02:53:53;;;;;;;;;;;;;;;6.77;100.00;96396.50;5093241;28;19939;-69
2023/04/16 02:56:19;;;;;;;;;;;;;;;6.74;100.00;96403.88;5096787;28;19936;-69
2023/04/16 02:58:45;;;;;;;;;;;;;;;6.70;100.00;96395.69;5097459;28;19946;-78
2023/04/16 03:01:11;;;;;;;;;;;;;;;6.66;100.00;96395.25;5095415;28;20004;-77
2023/04/16 03:03:37;;;;;;;;;;;;;;;6.66;100.00;96399.66;5096588;28;19994;-77
2023/04/16 03:06:02;;;;;;;;;;;;;;;6.67;100.00;96401.25;5097175;28;19950;-78
2023/04/16 03:08:28;;;;;;;;;;;;;;;6.68;100.00;96397.66;5096555;28;19938;-78
2023/04/16 03:10:54;;;;;;;;;;;;;;;6.67;100.00;96398.66;5096484;28;19962;-78
2023/04/16 03:13:20;;;;;;;;;;;;;;;6.66;100.00;96399.66;5096461;28;19987;-78
2023/04/16 03:15:49;;;;;;;;;;;;;;;6.67;100.00;96396.06;5096396;28;20050;-70
2023/04/16 03:18:15;;;;;;;;;;;;;;;6.67;100.00;96396.84;5096228;28;19949;-70
2023/04/16 03:20:41;;;;;;;;;;;;;;;6.70;100.00;96399.06;5096302;28;19946;-70
2023/04/16 03:23:06;;;;;;;;;;;;;;;6.73;100.00;96402.28;5096942;28;19956;-70
2023/04/16 03:25:32;;;;;;;;;;;;;;;6.68;100.00;96403.69;5096159;28;19936;-69
2023/04/16 03:27:58;;;;;;;;;;;;;;;6.61;100.00;96404.63;5096680;28;19947;-68
2023/04/16 03:30:24;;;;;;;;;;;;;;;6.54;100.00;96396.00;5095935;28;19976;-70
2023/04/16 03:32:50;;;;;;;;;;;;;;;6.42;100.00;96409.56;5096092;28;19962;-71
2023/04/16 03:35:17;;;;;;;;;;;;;;;6.29;100.00;96401.66;5096074;28;20296;-69
2023/04/16 03:37:43;;;;;;;;;;;;;;;6.21;100.00;96402.63;5096696;28;19955;-69
2023/04/16 03:40:08;;;;;;;;;;;;;;;6.17;100.00;96405.81;5095945;28;20029;-68
2023/04/16 03:42:35;;;;;;;;;;;;;;;6.15;100.00;96410.41;5095682;28;20396;-69
2023/04/16 03:45:00;;;;;;;;;;;;;;;6.13;100.00;96412.38;5096705;28;19942;-69
2023/04/16 03:47:26;;;;;;;;;;;;;;;6.10;100.00;96408.38;5095817;28;20538;-70
2023/04/16 03:49:52;;;;;;;;;;;;;;;6.09;100.00;96414.59;5095658;28;19985;-70
2023/04/16 03:52:18;;;;;;;;;;;;;;;6.08;100.00;96416.34;5094469;28;19949;-70
2023/04/16 03:54:44;;;;;;;;;;;;;;;6.07;100.00;96414.75;5095575;28;20007;-71
2023/04/16 03:57:10;;;;;;;;;;;;;;;6.05;100.00;96416.75;5096030;28;19932;-71
2023/04/16 03:59:35;;;;;;;;;;;;;;;6.06;100.00;96417.56;5095426;28;19933;-70
2023/04/16 04:02:01;;;;;;;;;;;;;;;6.06;100.00;96420.94;5095346;28;20421;-71
2023/04/16 04:04:27;;;;;;;;;;;;;;;6.09;100.00;96415.38;5095294;28;19957;-72
2023/04/16 04:06:53;;;;;;;;;;;;;;;6.10;100.00;96413.56;5095197;28;19955;-71
2023/04/16 04:09:19;;;;;;;;;;;;;;;6.09;100.00;96419.78;5095253;28;19935;-89
2023/04/16 04:11:44;;;;;;;;;;;;;;;6.07;100.00;96416.56;5095266;28;19981;-73
2023/04/16 04:14:10;;;;;;;;;;;;;;;6.08;100.00;96421.56;5096062;28;19942;-69
2023/04/16 04:16:36;;;;;;;;;;;;;;;6.13;100.00;96426.19;5094014;28;19933;-69
2023/04/16 04:19:02;;;;;;;;;;;;;;;6.16;100.00;96432.84;5095089;28;19941;-69
2023/04/16 04:21:28;;;;;;;;;;;;;;;6.15;100.00;96421.59;5095006;28;19963;-69
2023/04/16 04:23:54;;;;;;;;;;;;;;;6.14;100.00;96425.22;5095028;28;19941;-69
2023/04/16 04:26:20;;;;;;;;;;;;;;;6.12;100.00;96422.00;5095046;28;19981;-68
2023/04/16 04:28:46;;;;;;;;;;;;;;;6.10;100.00;96431.78;5094965;28;19951;-69
2023/04/16 04:31:12;;;;;;;;;;;;;;;6.07;100.00;96425.19;5094835;28;19974;-74
2023/04/16 04:33:38;;;;;;;;;;;;;;;6.08;100.00;96431.97;5094835;28;20421;-75
2023/04/16 04:36:04;;;;;;;;;;;;;;;6.09;100.00;96432.81;5094761;28;20409;-76
2023/04/16 04:38:30;;;;;;;;;;;;;;;6.06;100.00;96441.78;5095558;28;19935;-75
2023/04/16 04:40:56;;;;;;;;;;;;;;;6.05;100.00;96437.56;5094704;28;20395;-76
2023/04/16 04:43:22;;;;;;;;;;;;;;;6.06;100.00;96446.19;5094844;28;19965;-76
2023/04/16 04:45:48;;;;;;;;;;;;;;;6.04;100.00;96451.56;5094838;28;19940;-85
2023/04/16 04:48:14;;;;;;;;;;;;;;;6.04;100.00;96448.16;5094631;28;19953;-86
2023/04/16 04:50:41;;;;;;;;;;;;;;;6.04;100.00;96453.38;5094550;28;19949;-87
2023/04/16 04:53:09;;;;;;;;;;;;;;;6.05;100.00;96455.81;5095339;28;19940;-86
2023/04/16 04:55:36;;;;;;;;;;;;;;;6.07;100.00;96463.44;5094328;28;19945;-89
2023/04/16 04:58:03;;;;;;;;;;;;;;;6.06;100.00;96462.59;5094433;28;20301;-88
2023/04/16 05:00:29;;;;;;;;;;;;;;;6.07;100.00;96460.81;5095247;28;20287;-88
2023/04/16 05:02:55;;;;;;;;;;;;;;;6.06;100.00;96459.19;5094818;28;20309;-87
2023/04/16 05:05:21;;;;;;;;;;;;;;;6.04;100.00;96467.19;5094347;28;19941;-70
2023/04/16 05:07:47;;;;;;;;;;;;;;;6.03;100.00;96470.81;5094279;28;19938;-68
2023/04/16 05:10:13;;;;;;;;;;;;;;;6.02;100.00;96471.78;5095072;28;20475;-68
2023/04/16 05:12:39;;;;;;;;;;;;;;;6.00;100.00;96476.38;5094133;28;20052;-68
2023/04/16 05:15:05;;;;;;;;;;;;;;;6.01;100.00;96482.41;5094468;28;19946;-68
2023/04/16 05:17:31;;;;;;;;;;;;;;;6.01;100.00;96485.00;5093539;28;19946;-69
2023/04/16 05:19:56;;;;;;;;;;;;;;;6.00;100.00;96486.78;5094073;28;19948;-68
2023/04/16 05:22:22;;;;;;;;;;;;;;;6.00;100.00;96489.38;5094870;28;19963;-69
2023/04/16 05:24:48;;;;;;;;;;;;;;;5.97;100.00;96492.38;5093932;28;19942;-72
2023/04/16 05:27:14;;;;;;;;;;;;;;;5.98;100.00;96491.38;5093990;28;20316;-87
2023/04/16 05:29:40;;;;;;;;;;;;;;;5.98;100.00;96495.78;5092678;28;19967;-89
2023/04/16 05:32:06;;;;;;;;;;;;;;;5.97;100.00;96502.00;5094320;28;19947;-89
2023/04/16 05:34:32;;;;;;;;;;;;;;;5.95;100.00;96496.16;5094115;28;19939;-89
2023/04/16 05:36:58;;;;;;;;;;;;;;;5.94;100.00;96502.31;5093908;28;19952;-87
2023/04/16 05:39:24;;;;;;;;;;;;;;;5.90;100.00;96499.31;5094651;28;20443;-87
2023/04/16 05:41:50;;;;;;;;;;;;;;;5.89;100.00;96508.88;5094009;28;19959;-86
2023/04/16 05:44:16;;;;;;;;;;;;;;;5.93;100.00;96505.94;5093807;28;19965;-74
2023/04/16 05:46:41;;;;;;;;;;;;;;;5.94;100.00;96510.13;5093716;28;20395;-75
2023/04/16 05:49:07;;;;;;;;;;;;;;;5.94;100.00;96516.13;5093709;28;19941;-74
2023/04/16 05:51:33;;;;;;;;;;;;;;;5.91;100.00;96521.72;5093291;28;19946;-75
2023/04/16 05:53:59;;;;;;;;;;;;;;;5.90;100.00;96520.13;5093722;28;19941;-74
2023/04/16 05:56:25;;;;;;;;;;;;;;;5.90;100.00;96520.94;5093669;28;19997;-74
2023/04/16 05:58:51;;;;;;;;;;;;;;;5.92;100.00;96523.31;5093589;28;19945;-74
2023/04/16 06:01:17;;;;;;;;;;;;;;;5.92;100.00;96528.53;5093686;28;19941;-83
2023/04/16 06:03:44;;;;;;;;;;;;;;;5.90;100.00;96526.13;5093210;28;19948;-71
2023/04/16 06:06:09;;;;;;;;;;;;;;;5.90;100.00;96533.94;5093493;28;20428;-72
2023/04/16 06:08:35;;;;;;;;;;;;;;;5.89;100.00;96537.50;5093460;28;19932;-71
2023/04/16 06:11:02;;;;;;;;;;;;;;;5.89;100.00;96536.72;5093497;28;19943;-71
2023/04/16 06:13:28;;;;;;;;;;;;;;;5.89;100.00;96542.72;5093385;28;19989;-71
2023/04/16 06:15:53;;;;;;;;;;;;;;;5.87;100.00;96543.91;5093941;28;19995;-72
2023/04/16 06:18:19;;;;;;;;;;;;;;;5.85;100.00;96533.69;5093426;28;19932;-74
2023/04/16 06:20:46;;;;;;;;;;;;;;;5.86;100.00;96535.31;5093421;28;19968;-71
2023/04/16 06:23:12;;;;;;;;;;;;;;;5.84;100.00;96533.88;5093342;28;19957;-69
2023/04/16 06:25:37;;;;;;;;;;;;;;;5.83;100.00;96545.25;5076178;28;20423;-69
2023/04/16 06:28:03;;;;;;;;;;;;;;;5.80;100.00;96538.63;5093359;28;19943;-69
2023/04/16 06:30:29;;;;;;;;;;;;;;;5.79;100.00;96542.22;5095997;28;19967;-71
2023/04/16 06:32:55;;;;;;;;;;;;;;;5.80;100.00;96545.66;5097881;28;19951;-70
2023/04/16 06:35:21;;;;;;;;;;;;;;;5.79;100.00;96549.22;5097085;28;20022;-69
2023/04/16 06:37:47;;;;;;;;;;;;;;;5.77;100.00;96548.59;5097045;28;19953;-69
2023/04/16 06:40:13;;;;;;;;;;;;;;;5.76;100.00;96545.22;5097056;28;19936;-68
2023/04/16 06:42:39;;;;;;;;;;;;;;;5.77;100.00;96546.81;5096904;28;20401;-68
2023/04/16 06:45:05;;;;;;;;;;;;;;;5.78;100.00;96550.22;5097806;28;20426;-68
2023/04/16 06:47:31;;;;;;;;;;;;;;;5.78;100.00;96558.03;5096937;28;20029;-68
2023/04/16 06:49:57;;;;;;;;;;;;;;;5.79;100.00;96554.44;5096838;28;19937;-68
2023/04/16 06:52:22;;;;;;;;;;;;;;;5.79;100.00;96560.44;5096880;28;19928;-68
2023/04/16 06:54:48;;;;;;;;;;;;;;;5.80;100.00;96558.66;5096712;28;19943;-69
2023/04/16 06:57:15;;;;;;;;;;;;;;;5.81;100.00;96565.47;5097357;28;19937;-75
2023/04/16 06:59:40;;;;;;;;;;;;;;;5.77;100.00;96562.41;5096646;28;20323;-74
2023/04/16 07:02:08;;;;;;;;;;;;;;;5.76;100.00;96563.41;5097457;28;19961;-75
2023/04/16 07:04:34;;;;;;;;;;;;;;;5.77;100.00;96567.63;5096611;28;20316;-74
2023/04/16 07:07:00;;;;;;;;;;;;;;;5.79;100.00;96570.03;5096506;28;19942;-74
2023/04/16 07:09:26;;;;;;;;;;;;;;;5.80;100.00;96566.47;5096515;28;19938;-74
2023/04/16 07:11:52;;;;;;;;;;;;;;;5.82;100.00;96573.09;5096446;28;19945;-74
2023/04/16 07:14:18;;;;;;;;;;;;;;;5.83;100.00;96571.28;5097270;28;19939;-69
2023/04/16 07:16:44;;;;;;;;;;;;;;;5.85;100.00;96572.72;5096770;28;19946;-74
2023/04/16 07:19:10;;;;;;;;;;;;;;;5.85;100.00;96575.31;5096189;28;19944;-74
2023/04/16 07:21:36;;;;;;;;;;;;;;;5.84;100.00;96573.72;5096676;28;19943;-74
2023/04/16 07:24:02;;;;;;;;;;;;;;;5.84;100.00;96573.72;5096276;28;20449;-74
2023/04/16 07:26:27;;;;;;;;;;;;;;;5.86;100.00;96568.34;5096176;28;19986;-74
2023/04/16 07:28:53;;;;;;;;;;;;;;;5.87;100.00;96573.34;5095903;28;19999;-75
2023/04/16 07:31:19;;;;;;;;;;;;;;;5.89;100.00;96576.56;5096961;28;19989;-71
2023/04/16 07:33:45;;;;;;;;;;;;;;;5.90;100.00;96574.78;5096192;28;19993;-70
2023/04/16 07:36:11;;;;;;;;;;;;;;;5.90;100.00;96578.19;5096586;28;19958;-69
2023/04/16 07:38:37;;;;;;;;;;;;;;;5.89;100.00;96576.56;5095900;28;19946;-69
2023/04/16 07:41:02;;;;;;;;;;;;;;;5.98;100.00;96581.69;5095445;28;19940;-69
2023/04/16 07:43:28;;;;;;;;;;;;;;;6.03;100.00;96589.75;5095791;28;19955;-69
2023/04/16 07:45:54;;;;;;;;;;;;;;;6.01;100.00;96584.72;5095777;28;19989;-69
2023/04/16 07:48:20;;;;;;;;;;;;;;;6.02;100.00;96585.53;5095735;28;20298;-69
2023/04/16 07:50:46;;;;;;;;;;;;;;;6.01;100.00;96587.34;5095723;28;19939;-73
2023/04/16 07:53:12;;;;;;;;;;;;;;;6.02;100.00;96596.75;5095736;28;19947;-74
2023/04/16 07:55:38;;;;;;;;;;;;;;;6.03;100.00;96594.97;5096148;28;19988;-73
2023/04/16 07:58:05;;;;;;;;;;;;;;;6.07;100.00;96591.78;5095584;28;19939;-73
2023/04/16 08:00:31;;;;;;;;;;;;;;;6.11;100.00;96597.44;5095443;28;19937;-75
2023/04/16 08:02:57;;;;;;;;;;;;;;;6.13;100.00;96603.25;5095927;28;20401;-73
2023/04/16 08:05:23;;;;;;;;;;;;;;;6.12;100.00;96603.47;5095430;28;19937;-73
2023/04/16 08:07:49;;;;;;;;;;;;;;;6.10;100.00;96601.81;5095336;28;20470;-73
2023/04/16 08:10:15;;;;;;;;;;;;;;;6.10;100.00;96609.63;5095284;28;19942;-74
2023/04/16 08:12:40;;;;;;;;;;;;;;;6.07;100.00;96614.44;5094386;28;20390;-70
2023/04/16 08:15:06;;;;;;;;;;;;;;;6.02;100.00;96617.56;5095806;28;19939;-71
2023/04/16 08:17:33;;;;;;;;;;;;;;;6.00;100.00;96623.94;5094894;28;19937;-70
2023/04/16 08:19:59;;;;;;;;;;;;;;;5.99;100.00;96628.34;5095213;28;19935;-71
2023/04/16 08:22:25;;;;;;;;;;;;;;;5.96;100.00;96628.72;5095249;28;20001;-70
2023/04/16 08:24:51;;;;;;;;;;;;;;;5.98;100.00;96625.94;5094420;28;20005;-71
2023/04/16 08:27:17;;;;;;;;;;;;;;;5.97;100.00;96635.53;5094907;28;19947;-75
2023/04/16 08:29:43;;;;;;;;;;;;;;;5.97;100.00;96637.34;5093742;28;19965;-76
2023/04/16 08:32:09;;;;;;;;;;;;;;;5.98;100.00;96642.34;5094709;28;19952;-69
2023/04/16 08:34:35;;;;;;;;;;;;;;;5.99;100.00;96637.97;5094649;28;19947;-69
2023/04/16 08:37:01;;;;;;;;;;;;;;;5.98;100.00;96636.34;5094568;28;19956;-69
2023/04/16 08:39:27;;;;;;;;;;;;;;;6.00;100.00;96644.78;5094556;28;19992;-69
2023/04/16 08:41:54;;;;;;;;;;;;;;;6.00;100.00;96650.78;5094961;28;19940;-69
2023/04/16 08:44:24;;;;;;;;;;;;;;;6.04;100.00;96646.03;5094546;28;20303;-69
2023/04/16 08:46:53;;;;;;;;;;;;;;;6.07;100.00;96643.88;5094467;28;19947;-71
2023/04/16 08:49:19;;;;;;;;;;;;;;;6.07;100.00;96650.88;5094498;28;20313;-69
2023/04/16 08:51:52;;;;;;;;;;;;;;;6.07;100.00;96653.47;5094030;28;19940;-69
2023/04/16 08:54:24;;;;;;;;;;;;;;;6.07;100.00;96651.69;5094275;28;19946;-69
2023/04/16 08:56:50;;;;;;;;;;;;;;;6.08;100.00;96658.47;5094160;28;19938;-69
2023/04/16 08:59:16;;;;;;;;;;;;;;;6.10;100.00;96658.31;5094405;28;19946;-70
2023/04/16 09:01:42;;;;;;;;;;;;;;;6.12;100.00;96658.13;5094245;28;20309;-69
2023/04/16 09:04:08;;;;;;;;;;;;;;;6.14;100.00;96656.16;5094238;28;19997;-87
2023/04/16 09:06:35;;;;;;;;;;;;;;;6.17;100.00;96659.19;5094799;28;19989;-89
2023/04/16 09:09:03;;;;;;;;;;;;;;;6.23;100.00;96666.25;5094183;28;19938;-69
2023/04/16 09:11:29;;;;;;;;;;;;;;;6.31;100.00;96665.34;5094068;28;19938;-70
2023/04/16 09:13:56;;;;;;;;;;;;;;;6.35;100.00;96663.97;5094109;28;20394;-70
2023/04/16 09:16:22;;;;;;;;;;;;;;;6.42;100.00;96664.03;5094606;28;19934;-70
2023/04/16 09:18:48;;;;;;;;;;;;;;;6.50;100.00;96671.72;5093958;28;19949;-70
2023/04/16 09:21:14;;;;;;;;;;;;;;;6.59;100.00;96664.59;5093304;28;19941;-70
2023/04/16 09:23:40;;;;;;;;;;;;;;;6.63;100.00;96661.41;5094828;28;19953;-70
2023/04/16 09:26:06;;;;;;;;;;;;;;;6.63;100.00;96666.63;5093979;28;20321;-68
2023/04/16 09:28:39;;;;;;;;;;;;;;;6.65;100.00;96664.63;5093955;28;19982;-67
2023/04/16 09:31:12;;;;;;;;;;;;;;;6.70;100.00;96667.50;5093714;28;19974;-68
2023/04/16 09:33:38;;;;;;;;;;;;;;;6.75;100.00;96663.53;5094712;28;20323;-67
2023/04/16 09:36:05;;;;;;;;;;;;;;;6.78;100.00;96670.97;5093821;28;19955;-68
2023/04/16 09:38:46;;;;;;;;;;;;;;;6.81;100.00;96676.63;5093843;28;19940;-67
2023/04/16 09:41:15;;;;;;;;;;;;;;;6.81;100.00;96678.44;5094904;28;19950;-70
2023/04/16 09:43:48;;;;;;;;;;;;;;;6.81;100.00;96675.81;5094984;28;19965;-74
2023/04/16 09:46:13;;;;;;;;;;;;;;;6.82;100.00;96677.41;5076582;28;19951;-74
2023/04/16 09:48:39;;;;;;;;;;;;;;;6.83;100.00;96681.66;5093982;28;19935;-73
2023/04/16 09:51:06;;;;;;;;;;;;;;;6.82;100.00;96680.81;5094312;28;19998;-74
2023/04/16 09:53:32;;;;;;;;;;;;;;;6.84;100.00;96693.69;5093644;28;19941;-73
2023/04/16 09:55:58;;;;;;;;;;;;;;;6.84;100.00;96671.00;5093969;28;19979;-73
2023/04/16 09:58:24;;;;;;;;;;;;;;;6.86;100.00;96686.47;5093690;28;19946;-74
2023/04/16 10:01:11;;;;;;;;;;;;;;;6.90;100.00;96682.50;5094550;28;19939;-72
2023/04/16 10:03:40;;;;;;;;;;;;;;;6.95;100.00;96690.56;5095107;28;20319;-70
2023/04/16 10:06:19;;;;;;;;;;;;;;;7.01;100.00;96692.41;5097619;28;19985;-71
2023/04/16 10:08:49;;;;;;;;;;;;;;;7.05;100.00;96688.41;5097500;28;19940;-71
2023/04/16 10:11:15;;;;;;;;;;;;;;;7.08;100.00;96695.88;5079547;28;19943;-71
2023/04/16 10:13:41;;;;;;;;;;;;;;;7.08;100.00;96695.09;5097357;28;19935;-72
2023/04/16 10:16:08;;;;;;;;;;;;;;;7.09;100.00;96696.69;5097253;28;19943;-71
2023/04/16 10:18:37;;;;;;;;;;;;;;;7.15;100.00;96700.34;5097763;28;19939;-89
2023/04/16 10:21:04;;;;;;;;;;;;;;;7.20;100.00;96703.19;5097943;28;19942;-68
2023/04/16 10:23:31;;;;;;;;;;;;;;;7.19;100.00;96709.41;5097162;28;19950;-69
2023/04/16 10:25:57;;;;;;;;;;;;;;;7.15;100.00;96708.97;5097587;28;19948;-68
2023/04/16 10:28:23;;;;;;;;;;;;;;;7.14;100.00;96709.97;5097077;28;20315;-69
2023/04/16 10:30:53;;;;;;;;;;;;;;;7.15;100.00;96710.78;5096817;28;20438;-68
2023/04/16 10:33:20;;;;;;;;;;;;;;;7.16;100.00;96709.75;5095795;28;20404;-69
2023/04/16 10:35:46;;;;;;;;;;;;;;;7.18;100.00;96705.16;5096973;28;19940;-74
2023/04/16 10:38:31;;;;;;;;;;;;;;;7.18;100.00;96706.00;5095854;28;19945;-74
2023/04/16 10:41:06;;;;;;;;;;;;;;;7.17;100.00;96711.41;5097388;28;20268;-68
2023/04/16 10:43:37;;;;;;;;;;;;;;;7.14;100.00;96709.97;5097506;28;19979;-68
2023/04/16 10:46:17;;;;;;;;;;;;;;;7.17;100.00;96716.63;5095671;28;19942;-68
2023/04/16 10:48:43;;;;;;;;;;;;;;;7.19;100.00;96714.63;5096680;28;19969;-68
2023/04/16 10:51:22;;;;;;;;;;;;;;;7.21;100.00;96710.03;5096687;28;20373;-67
2023/04/16 10:53:48;;;;;;;;;;;;;;;7.20;100.00;96717.03;5096619;28;20034;-71
2023/04/16 10:56:14;;;;;;;;;;;;;;;7.17;100.00;96709.59;5097102;28;19943;-71
2023/04/16 10:58:40;;;;;;;;;;;;;;;7.15;100.00;96716.00;5096024;28;19950;-71
2023/04/16 11:01:11;;;;;;;;;;;;;;;7.17;100.00;96706.19;5096473;28;19964;-71
2023/04/16 11:03:40;;;;;;;;;;;;;;;7.18;100.00;96707.78;5097247;28;19956;-71
2023/04/16 11:06:16;;;;;;;;;;;;;;;7.20;100.00;96711.84;5097236;28;19940;-71
2023/04/16 11:08:45;;;;;;;;;;;;;;;7.21;100.00;96705.59;5096750;28;19938;-71
2023/04/16 11:11:11;;;;;;;;;;;;;;;7.19;100.00;96714.63;5096226;28;19946;-71
2023/04/16 11:13:41;;;;;;;;;;;;;;;7.19;100.00;96714.63;5097008;28;19942;-88
2023/04/16 11:16:07;;;;;;;;;;;;;;;7.19;100.00;96718.03;5095536;28;19949;-71
2023/04/16 11:18:33;;;;;;;;;;;;;;;7.19;100.00;96714.63;5097010;28;19941;-71
2023/04/16 11:20:59;;;;;;;;;;;;;;;7.16;100.00;96717.59;5096088;28;19980;-71
2023/04/16 11:23:25;;;;;;;;;;;;;;;7.15;100.00;96711.56;5095930;28;20024;-71
2023/04/16 11:25:55;;;;;;;;;;;;;;;7.19;100.00;96717.22;5094839;28;19944;-71
2023/04/16 11:28:31;;;;;;;;;;;;;;;7.19;100.00;96717.22;5095948;28;20334;-71
2023/04/16 11:30:57;;;;;;;;;;;;;;;7.20;100.00;96716.22;5095896;28;20333;-72
2023/04/16 11:33:24;;;;;;;;;;;;;;;7.21;100.00;96721.25;5095097;28;20009;-76
2023/04/16 11:35:58;;;;;;;;;;;;;;;7.23;100.00;96718.47;5095877;28;19942;-75
2023/04/16 11:38:37;;;;;;;;;;;;;;;7.25;100.00;96717.28;5095938;28;20306;-74
2023/04/16 11:41:03;;;;;;;;;;;;;;;7.29;100.00;96715.91;5095859;28;19942;-75
2023/04/16 11:43:29;;;;;;;;;;;;;;;7.35;100.00;96723.94;5096574;28;19959;-74
2023/04/16 11:45:58;;;;;;;;;;;;;;;7.39;100.00;96720.78;5095752;28;19940;-74
2023/04/16 11:48:25;;;;;;;;;;;;;;;7.43;100.00;96723.81;5095323;28;20330;-74
2023/04/16 11:50:57;;;;;;;;;;;;;;;7.46;100.00;96721.63;5095783;28;20284;-71
2023/04/16 11:53:23;;;;;;;;;;;;;;;7.46;100.00;96728.66;5096252;28;20388;-77
2023/04/16 11:55:49;;;;;;;;;;;;;;;7.44;100.00;96728.84;5095525;28;19942;-78
2023/04/16 11:58:15;;;;;;;;;;;;;;;7.44;100.00;96728.03;5094385;28;20439;-77
2023/04/16 12:00:41;;;;;;;;;;;;;;;7.41;100.00;96734.44;5096332;28;19938;-77
2023/04/16 12:03:07;;;;;;;;;;;;;;;7.42;100.00;96733.44;5095374;28;19964;-76
2023/04/16 12:05:34;;;;;;;;;;;;;;;7.42;100.00;96732.63;5095446;28;19941;-77
2023/04/16 12:08:01;;;;;;;;;;;;;;;7.46;100.00;96734.66;5095968;28;19943;-74
2023/04/16 12:10:27;;;;;;;;;;;;;;;7.48;100.00;96734.50;5096321;28;19956;-72
2023/04/16 12:12:53;;;;;;;;;;;;;;;7.52;100.00;96736.53;5095599;28;19944;-91
2023/04/16 12:15:19;;;;;;;;;;;;;;;7.60;100.00;96737.34;5095956;28;19931;-89
2023/04/16 12:17:46;;;;;;;;;;;;;;;7.64;100.00;96725.53;5095371;28;20460;-88
2023/04/16 12:20:13;;;;;;;;;;;;;;;7.64;100.00;96735.97;5095953;28;19942;-88
2023/04/16 12:22:42;;;;;;;;;;;;;;;7.67;100.00;96741.63;5095046;28;19941;-89
2023/04/16 12:25:12;;;;;;;;;;;;;;;7.74;100.00;96736.44;5095073;28;19941;-83
2023/04/16 12:27:45;;;;;;;;;;;;;;;7.80;100.00;96740.09;5095745;28;19940;-75
2023/04/16 12:30:12;;;;;;;;;;;;;;;7.84;100.00;96741.31;5093514;28;20436;-70
2023/04/16 12:32:38;;;;;;;;;;;;;;;7.86;100.00;96740.13;5095752;28;19936;-71
2023/04/16 12:35:04;;;;;;;;;;;;;;;7.88;100.00;96750.38;5095463;28;19976;-70
2023/04/16 12:37:30;;;;;;;;;;;;;;;7.89;100.00;96746.75;5094684;28;19961;-70
2023/04/16 12:39:56;;;;;;;;;;;;;;;7.87;100.00;96754.81;5094737;28;19941;-70
2023/04/16 12:42:22;;;;;;;;;;;;;;;7.86;100.00;96753.19;5094757;28;19939;-71
2023/04/16 12:44:48;;;;;;;;;;;;;;;7.84;100.00;96749.16;5094571;28;19962;-72